sensor_id;sensor_type;location;lat;lon;timestamp;P1;durP1;ratioP1;P2;durP2;ratioP2
8285;SDS011;4181;43.416;24.598;2023-03-01T00:01:04;20.43;;;15.97;;
8285;SDS011;4181;43.416;24.598;2023-03-01T00:03:34;20.40;;;16.10;;
8285;SDS011;4181;43.416;24.598;2023-03-01T00:06:00;18.40;;;15.07;;
8285;SDS011;4181;43.416;24.598;2023-03-01T00:08:26;17.03;;;14.07;;
8285;SDS011;4181;43.416;24.598;2023-03-01T00:11:03;18.27;;;15.23;;
8285;SDS011;4181;43.416;24.598;2023-03-01T00:13:33;19.47;;;16.20;;
8285;SDS011;4181;43.416;24.598;2023-03-01T00:16:08;19.30;;;16.40;;
8285;SDS011;4181;43.416;24.598;2023-03-01T00:18:35;23.47;;;16.73;;
8285;SDS011;4181;43.416;24.598;2023-03-01T00:21:01;22.10;;;16.47;;
8285;SDS011;4181;43.416;24.598;2023-03-01T00:23:27;19.50;;;16.50;;
8285;SDS011;4181;43.416;24.598;2023-03-01T00:25:52;17.47;;;15.00;;
8285;SDS011;4181;43.416;24.598;2023-03-01T00:28:19;21.57;;;15.60;;
8285;SDS011;4181;43.416;24.598;2023-03-01T00:30:45;20.97;;;16.10;;
8285;SDS011;4181;43.416;24.598;2023-03-01T00:33:11;23.77;;;18.17;;
8285;SDS011;4181;43.416;24.598;2023-03-01T00:35:37;19.60;;;16.20;;
8285;SDS011;4181;43.416;24.598;2023-03-01T00:38:03;22.60;;;17.23;;
8285;SDS011;4181;43.416;24.598;2023-03-01T00:40:29;21.13;;;16.70;;
8285;SDS011;4181;43.416;24.598;2023-03-01T00:42:59;19.53;;;15.53;;
8285;SDS011;4181;43.416;24.598;2023-03-01T00:45:25;20.70;;;16.43;;
8285;SDS011;4181;43.416;24.598;2023-03-01T00:47:51;22.73;;;17.33;;
8285;SDS011;4181;43.416;24.598;2023-03-01T00:50:17;27.27;;;17.37;;
8285;SDS011;4181;43.416;24.598;2023-03-01T00:52:43;20.77;;;16.10;;
8285;SDS011;4181;43.416;24.598;2023-03-01T00:55:09;20.97;;;16.27;;
8285;SDS011;4181;43.416;24.598;2023-03-01T00:57:35;24.23;;;16.07;;
8285;SDS011;4181;43.416;24.598;2023-03-01T01:00:01;23.00;;;16.33;;
8285;SDS011;4181;43.416;24.598;2023-03-01T01:02:29;20.93;;;15.20;;
8285;SDS011;4181;43.416;24.598;2023-03-01T01:04:54;19.70;;;15.37;;
8285;SDS011;4181;43.416;24.598;2023-03-01T01:07:20;19.00;;;14.90;;
8285;SDS011;4181;43.416;24.598;2023-03-01T01:09:45;18.40;;;14.27;;
8285;SDS011;4181;43.416;24.598;2023-03-01T01:12:11;18.43;;;14.13;;
8285;SDS011;4181;43.416;24.598;2023-03-01T01:14:37;22.33;;;15.30;;
8285;SDS011;4181;43.416;24.598;2023-03-01T01:17:03;19.73;;;14.87;;
8285;SDS011;4181;43.416;24.598;2023-03-01T01:19:29;19.23;;;15.00;;
8285;SDS011;4181;43.416;24.598;2023-03-01T01:21:55;20.50;;;15.67;;
8285;SDS011;4181;43.416;24.598;2023-03-01T01:24:20;17.67;;;14.87;;
8285;SDS011;4181;43.416;24.598;2023-03-01T01:26:46;20.80;;;14.80;;
8285;SDS011;4181;43.416;24.598;2023-03-01T01:29:12;17.70;;;13.77;;
8285;SDS011;4181;43.416;24.598;2023-03-01T01:31:38;16.87;;;12.87;;
8285;SDS011;4181;43.416;24.598;2023-03-01T01:34:05;18.90;;;14.50;;
8285;SDS011;4181;43.416;24.598;2023-03-01T01:36:34;18.07;;;14.23;;
8285;SDS011;4181;43.416;24.598;2023-03-01T01:39:03;23.80;;;15.83;;
8285;SDS011;4181;43.416;24.598;2023-03-01T01:41:29;23.03;;;16.43;;
8285;SDS011;4181;43.416;24.598;2023-03-01T01:44:28;19.20;;;14.47;;
8285;SDS011;4181;43.416;24.598;2023-03-01T01:46:58;21.77;;;16.37;;
8285;SDS011;4181;43.416;24.598;2023-03-01T01:49:53;23.50;;;15.97;;
8285;SDS011;4181;43.416;24.598;2023-03-01T01:55:04;23.30;;;16.07;;
8285;SDS011;4181;43.416;24.598;2023-03-01T02:02:41;22.30;;;16.00;;
8285;SDS011;4181;43.416;24.598;2023-03-01T02:05:14;19.37;;;14.10;;
8285;SDS011;4181;43.416;24.598;2023-03-01T02:07:49;19.43;;;14.60;;
8285;SDS011;4181;43.416;24.598;2023-03-01T02:10:16;18.27;;;13.73;;
8285;SDS011;4181;43.416;24.598;2023-03-01T02:12:42;18.73;;;14.10;;
8285;SDS011;4181;43.416;24.598;2023-03-01T02:15:08;16.50;;;13.53;;
8285;SDS011;4181;43.416;24.598;2023-03-01T02:17:33;15.97;;;13.37;;
8285;SDS011;4181;43.416;24.598;2023-03-01T02:20:07;15.70;;;12.80;;
8285;SDS011;4181;43.416;24.598;2023-03-01T02:22:52;17.63;;;13.33;;
8285;SDS011;4181;43.416;24.598;2023-03-01T02:25:25;15.37;;;12.40;;
8285;SDS011;4181;43.416;24.598;2023-03-01T02:30:48;19.00;;;13.93;;
8285;SDS011;4181;43.416;24.598;2023-03-01T02:33:34;14.83;;;12.93;;
8285;SDS011;4181;43.416;24.598;2023-03-01T02:36:13;15.03;;;12.77;;
8285;SDS011;4181;43.416;24.598;2023-03-01T02:38:42;14.53;;;12.10;;
8285;SDS011;4181;43.416;24.598;2023-03-01T02:41:08;15.10;;;12.03;;
8285;SDS011;4181;43.416;24.598;2023-03-01T02:43:38;15.87;;;11.70;;
8285;SDS011;4181;43.416;24.598;2023-03-01T02:46:06;16.73;;;13.03;;
8285;SDS011;4181;43.416;24.598;2023-03-01T02:48:48;23.13;;;13.57;;
8285;SDS011;4181;43.416;24.598;2023-03-01T02:51:27;17.80;;;12.13;;
8285;SDS011;4181;43.416;24.598;2023-03-01T02:54:10;15.80;;;12.97;;
8285;SDS011;4181;43.416;24.598;2023-03-01T02:56:41;16.17;;;12.97;;
8285;SDS011;4181;43.416;24.598;2023-03-01T02:59:08;19.70;;;13.93;;
8285;SDS011;4181;43.416;24.598;2023-03-01T03:01:34;20.30;;;15.63;;
8285;SDS011;4181;43.416;24.598;2023-03-01T03:04:06;18.57;;;14.30;;
8285;SDS011;4181;43.416;24.598;2023-03-01T03:06:33;15.27;;;13.03;;
8285;SDS011;4181;43.416;24.598;2023-03-01T03:08:58;17.63;;;14.10;;
8285;SDS011;4181;43.416;24.598;2023-03-01T03:11:24;17.80;;;13.07;;
8285;SDS011;4181;43.416;24.598;2023-03-01T03:13:50;16.23;;;13.53;;
8285;SDS011;4181;43.416;24.598;2023-03-01T03:16:17;18.40;;;13.90;;
8285;SDS011;4181;43.416;24.598;2023-03-01T03:18:42;16.13;;;13.47;;
8285;SDS011;4181;43.416;24.598;2023-03-01T03:21:09;17.00;;;13.37;;
8285;SDS011;4181;43.416;24.598;2023-03-01T03:23:36;15.80;;;12.47;;
8285;SDS011;4181;43.416;24.598;2023-03-01T03:26:04;15.20;;;12.33;;
8285;SDS011;4181;43.416;24.598;2023-03-01T03:28:30;15.50;;;13.20;;
8285;SDS011;4181;43.416;24.598;2023-03-01T03:30:57;16.60;;;13.33;;
8285;SDS011;4181;43.416;24.598;2023-03-01T03:33:23;17.73;;;13.30;;
8285;SDS011;4181;43.416;24.598;2023-03-01T03:35:49;15.53;;;13.60;;
8285;SDS011;4181;43.416;24.598;2023-03-01T03:38:16;17.40;;;14.23;;
8285;SDS011;4181;43.416;24.598;2023-03-01T03:48:43;16.60;;;13.90;;
8285;SDS011;4181;43.416;24.598;2023-03-01T03:51:13;17.53;;;15.20;;
8285;SDS011;4181;43.416;24.598;2023-03-01T03:53:40;17.50;;;14.23;;
8285;SDS011;4181;43.416;24.598;2023-03-01T03:56:06;18.00;;;14.57;;
8285;SDS011;4181;43.416;24.598;2023-03-01T04:01:17;17.23;;;14.40;;
8285;SDS011;4181;43.416;24.598;2023-03-01T04:10:47;20.23;;;15.30;;
8285;SDS011;4181;43.416;24.598;2023-03-01T04:13:16;17.97;;;14.50;;
8285;SDS011;4181;43.416;24.598;2023-03-01T04:15:45;17.23;;;14.30;;
8285;SDS011;4181;43.416;24.598;2023-03-01T04:18:14;19.17;;;14.80;;
8285;SDS011;4181;43.416;24.598;2023-03-01T04:20:41;17.20;;;14.50;;
8285;SDS011;4181;43.416;24.598;2023-03-01T04:23:11;19.83;;;15.97;;
8285;SDS011;4181;43.416;24.598;2023-03-01T04:25:47;20.77;;;16.10;;
8285;SDS011;4181;43.416;24.598;2023-03-01T04:28:24;18.70;;;14.40;;
8285;SDS011;4181;43.416;24.598;2023-03-01T04:31:05;18.67;;;14.23;;
8285;SDS011;4181;43.416;24.598;2023-03-01T04:36:09;18.43;;;14.90;;
8285;SDS011;4181;43.416;24.598;2023-03-01T04:38:36;18.77;;;14.43;;
8285;SDS011;4181;43.416;24.598;2023-03-01T04:41:06;17.37;;;14.20;;
8285;SDS011;4181;43.416;24.598;2023-03-01T04:43:34;16.57;;;13.40;;
8285;SDS011;4181;43.416;24.598;2023-03-01T04:46:01;18.73;;;14.97;;
8285;SDS011;4181;43.416;24.598;2023-03-01T04:48:33;20.27;;;14.70;;
8285;SDS011;4181;43.416;24.598;2023-03-01T04:50:59;17.90;;;14.30;;
8285;SDS011;4181;43.416;24.598;2023-03-01T04:53:25;16.73;;;13.43;;
8285;SDS011;4181;43.416;24.598;2023-03-01T04:55:51;18.23;;;14.03;;
8285;SDS011;4181;43.416;24.598;2023-03-01T04:58:16;29.50;;;21.57;;
8285;SDS011;4181;43.416;24.598;2023-03-01T05:00:42;28.13;;;21.80;;
8285;SDS011;4181;43.416;24.598;2023-03-01T05:03:08;23.77;;;18.57;;
8285;SDS011;4181;43.416;24.598;2023-03-01T05:05:35;24.67;;;19.70;;
8285;SDS011;4181;43.416;24.598;2023-03-01T05:08:03;105.83;;;31.20;;
8285;SDS011;4181;43.416;24.598;2023-03-01T05:10:31;26.17;;;20.47;;
8285;SDS011;4181;43.416;24.598;2023-03-01T05:12:59;24.13;;;19.30;;
8285;SDS011;4181;43.416;24.598;2023-03-01T05:15:26;23.27;;;19.20;;
8285;SDS011;4181;43.416;24.598;2023-03-01T05:17:53;24.10;;;18.30;;
8285;SDS011;4181;43.416;24.598;2023-03-01T05:20:20;21.70;;;17.83;;
8285;SDS011;4181;43.416;24.598;2023-03-01T05:22:49;19.50;;;16.13;;
8285;SDS011;4181;43.416;24.598;2023-03-01T05:25:15;19.20;;;16.20;;
8285;SDS011;4181;43.416;24.598;2023-03-01T05:27:42;21.17;;;17.77;;
8285;SDS011;4181;43.416;24.598;2023-03-01T05:30:11;22.47;;;17.50;;
8285;SDS011;4181;43.416;24.598;2023-03-01T05:32:40;23.60;;;17.90;;
8285;SDS011;4181;43.416;24.598;2023-03-01T05:35:10;20.80;;;17.93;;
8285;SDS011;4181;43.416;24.598;2023-03-01T05:37:44;21.60;;;17.77;;
8285;SDS011;4181;43.416;24.598;2023-03-01T05:40:11;20.40;;;17.23;;
8285;SDS011;4181;43.416;24.598;2023-03-01T05:42:55;22.93;;;17.47;;
8285;SDS011;4181;43.416;24.598;2023-03-01T05:45:22;21.00;;;16.67;;
8285;SDS011;4181;43.416;24.598;2023-03-01T05:47:50;21.47;;;18.10;;
8285;SDS011;4181;43.416;24.598;2023-03-01T05:52:49;20.73;;;17.07;;
8285;SDS011;4181;43.416;24.598;2023-03-01T05:55:20;22.20;;;17.50;;
8285;SDS011;4181;43.416;24.598;2023-03-01T05:57:46;21.27;;;16.23;;
8285;SDS011;4181;43.416;24.598;2023-03-01T06:00:12;22.43;;;16.53;;
8285;SDS011;4181;43.416;24.598;2023-03-01T06:02:40;24.23;;;17.77;;
8285;SDS011;4181;43.416;24.598;2023-03-01T06:05:09;25.73;;;19.07;;
8285;SDS011;4181;43.416;24.598;2023-03-01T06:07:35;21.97;;;17.83;;
8285;SDS011;4181;43.416;24.598;2023-03-01T06:10:22;24.33;;;18.40;;
8285;SDS011;4181;43.416;24.598;2023-03-01T06:12:47;23.60;;;18.03;;
8285;SDS011;4181;43.416;24.598;2023-03-01T06:15:14;41.73;;;18.27;;
8285;SDS011;4181;43.416;24.598;2023-03-01T06:17:41;20.97;;;17.00;;
8285;SDS011;4181;43.416;24.598;2023-03-01T06:20:09;24.20;;;18.60;;
8285;SDS011;4181;43.416;24.598;2023-03-01T06:22:38;24.67;;;18.17;;
8285;SDS011;4181;43.416;24.598;2023-03-01T06:25:04;24.13;;;18.37;;
8285;SDS011;4181;43.416;24.598;2023-03-01T06:27:31;24.90;;;17.07;;
8285;SDS011;4181;43.416;24.598;2023-03-01T06:29:56;25.13;;;18.70;;
8285;SDS011;4181;43.416;24.598;2023-03-01T06:32:22;33.13;;;23.20;;
8285;SDS011;4181;43.416;24.598;2023-03-01T06:34:48;29.37;;;19.20;;
8285;SDS011;4181;43.416;24.598;2023-03-01T06:37:14;26.77;;;19.40;;
8285;SDS011;4181;43.416;24.598;2023-03-01T06:39:39;25.50;;;19.00;;
8285;SDS011;4181;43.416;24.598;2023-03-01T06:42:07;26.37;;;19.07;;
8285;SDS011;4181;43.416;24.598;2023-03-01T06:44:35;25.87;;;19.83;;
8285;SDS011;4181;43.416;24.598;2023-03-01T06:47:00;26.20;;;20.57;;
8285;SDS011;4181;43.416;24.598;2023-03-01T06:49:29;28.50;;;20.80;;
8285;SDS011;4181;43.416;24.598;2023-03-01T06:51:55;27.80;;;20.07;;
8285;SDS011;4181;43.416;24.598;2023-03-01T06:54:21;32.77;;;21.30;;
8285;SDS011;4181;43.416;24.598;2023-03-01T06:56:47;61.97;;;26.93;;
8285;SDS011;4181;43.416;24.598;2023-03-01T06:59:13;30.73;;;21.97;;
8285;SDS011;4181;43.416;24.598;2023-03-01T07:01:39;33.30;;;23.77;;
8285;SDS011;4181;43.416;24.598;2023-03-01T07:04:04;28.53;;;19.93;;
8285;SDS011;4181;43.416;24.598;2023-03-01T07:06:30;31.90;;;23.13;;
8285;SDS011;4181;43.416;24.598;2023-03-01T07:08:56;36.27;;;22.87;;
8285;SDS011;4181;43.416;24.598;2023-03-01T07:11:21;27.50;;;20.47;;
8285;SDS011;4181;43.416;24.598;2023-03-01T07:13:47;27.23;;;17.97;;
8285;SDS011;4181;43.416;24.598;2023-03-01T07:16:13;27.87;;;18.37;;
8285;SDS011;4181;43.416;24.598;2023-03-01T07:18:39;29.37;;;20.53;;
8285;SDS011;4181;43.416;24.598;2023-03-01T07:21:07;29.63;;;19.87;;
8285;SDS011;4181;43.416;24.598;2023-03-01T07:23:34;33.37;;;21.47;;
8285;SDS011;4181;43.416;24.598;2023-03-01T07:25:59;40.07;;;23.90;;
8285;SDS011;4181;43.416;24.598;2023-03-01T07:28:25;23.80;;;17.93;;
8285;SDS011;4181;43.416;24.598;2023-03-01T07:30:51;29.67;;;19.73;;
8285;SDS011;4181;43.416;24.598;2023-03-01T07:33:17;27.07;;;18.80;;
8285;SDS011;4181;43.416;24.598;2023-03-01T07:35:42;34.83;;;20.60;;
8285;SDS011;4181;43.416;24.598;2023-03-01T07:38:08;33.17;;;22.53;;
8285;SDS011;4181;43.416;24.598;2023-03-01T07:40:34;31.77;;;23.30;;
8285;SDS011;4181;43.416;24.598;2023-03-01T07:43:03;34.90;;;24.03;;
8285;SDS011;4181;43.416;24.598;2023-03-01T07:45:28;35.17;;;25.63;;
8285;SDS011;4181;43.416;24.598;2023-03-01T07:47:54;31.53;;;22.63;;
8285;SDS011;4181;43.416;24.598;2023-03-01T07:50:20;31.23;;;22.23;;
8285;SDS011;4181;43.416;24.598;2023-03-01T07:52:47;27.67;;;18.47;;
8285;SDS011;4181;43.416;24.598;2023-03-01T07:55:14;27.67;;;19.57;;
8285;SDS011;4181;43.416;24.598;2023-03-01T07:57:41;26.97;;;19.87;;
8285;SDS011;4181;43.416;24.598;2023-03-01T08:00:07;36.87;;;20.63;;
8285;SDS011;4181;43.416;24.598;2023-03-01T08:02:36;31.63;;;21.60;;
8285;SDS011;4181;43.416;24.598;2023-03-01T08:05:01;30.37;;;21.07;;
8285;SDS011;4181;43.416;24.598;2023-03-01T08:07:27;26.97;;;20.67;;
8285;SDS011;4181;43.416;24.598;2023-03-01T08:09:52;32.33;;;23.60;;
8285;SDS011;4181;43.416;24.598;2023-03-01T08:12:18;29.90;;;21.53;;
8285;SDS011;4181;43.416;24.598;2023-03-01T08:14:44;27.73;;;19.53;;
8285;SDS011;4181;43.416;24.598;2023-03-01T08:17:09;27.43;;;20.07;;
8285;SDS011;4181;43.416;24.598;2023-03-01T08:19:35;34.07;;;23.07;;
8285;SDS011;4181;43.416;24.598;2023-03-01T08:22:01;27.77;;;19.97;;
8285;SDS011;4181;43.416;24.598;2023-03-01T08:24:27;30.20;;;21.63;;
8285;SDS011;4181;43.416;24.598;2023-03-01T08:26:53;28.17;;;20.80;;
8285;SDS011;4181;43.416;24.598;2023-03-01T08:29:19;30.27;;;21.17;;
8285;SDS011;4181;43.416;24.598;2023-03-01T08:31:45;30.83;;;20.03;;
8285;SDS011;4181;43.416;24.598;2023-03-01T08:34:11;24.70;;;18.03;;
8285;SDS011;4181;43.416;24.598;2023-03-01T08:36:39;34.70;;;23.77;;
8285;SDS011;4181;43.416;24.598;2023-03-01T08:39:07;46.83;;;32.13;;
8285;SDS011;4181;43.416;24.598;2023-03-01T08:41:33;30.97;;;24.07;;
8285;SDS011;4181;43.416;24.598;2023-03-01T08:43:59;32.67;;;23.00;;
8285;SDS011;4181;43.416;24.598;2023-03-01T08:46:28;33.80;;;25.50;;
8285;SDS011;4181;43.416;24.598;2023-03-01T08:48:56;27.20;;;21.53;;
8285;SDS011;4181;43.416;24.598;2023-03-01T08:51:22;34.70;;;23.00;;
8285;SDS011;4181;43.416;24.598;2023-03-01T08:53:50;51.83;;;32.30;;
8285;SDS011;4181;43.416;24.598;2023-03-01T08:56:15;56.73;;;38.97;;
8285;SDS011;4181;43.416;24.598;2023-03-01T08:58:46;36.50;;;26.57;;
8285;SDS011;4181;43.416;24.598;2023-03-01T09:01:14;37.77;;;26.77;;
8285;SDS011;4181;43.416;24.598;2023-03-01T09:03:41;33.57;;;26.10;;
8285;SDS011;4181;43.416;24.598;2023-03-01T09:06:08;35.60;;;25.93;;
8285;SDS011;4181;43.416;24.598;2023-03-01T09:08:34;35.47;;;26.07;;
8285;SDS011;4181;43.416;24.598;2023-03-01T09:11:01;29.63;;;23.17;;
8285;SDS011;4181;43.416;24.598;2023-03-01T09:13:28;37.53;;;26.67;;
8285;SDS011;4181;43.416;24.598;2023-03-01T09:15:56;35.20;;;25.83;;
8285;SDS011;4181;43.416;24.598;2023-03-01T09:18:24;36.43;;;26.67;;
8285;SDS011;4181;43.416;24.598;2023-03-01T09:20:49;44.17;;;31.00;;
8285;SDS011;4181;43.416;24.598;2023-03-01T09:23:15;38.13;;;27.67;;
8285;SDS011;4181;43.416;24.598;2023-03-01T09:25:40;32.27;;;25.03;;
8285;SDS011;4181;43.416;24.598;2023-03-01T09:28:06;33.07;;;24.17;;
8285;SDS011;4181;43.416;24.598;2023-03-01T09:30:31;32.53;;;23.90;;
8285;SDS011;4181;43.416;24.598;2023-03-01T09:32:57;36.63;;;25.83;;
8285;SDS011;4181;43.416;24.598;2023-03-01T09:35:23;34.27;;;23.17;;
8285;SDS011;4181;43.416;24.598;2023-03-01T09:37:49;31.50;;;24.07;;
8285;SDS011;4181;43.416;24.598;2023-03-01T09:40:21;33.40;;;23.83;;
8285;SDS011;4181;43.416;24.598;2023-03-01T09:42:51;27.13;;;21.30;;
8285;SDS011;4181;43.416;24.598;2023-03-01T09:45:29;25.43;;;19.03;;
8285;SDS011;4181;43.416;24.598;2023-03-01T09:48:03;31.73;;;22.40;;
8285;SDS011;4181;43.416;24.598;2023-03-01T09:50:35;31.17;;;21.97;;
8285;SDS011;4181;43.416;24.598;2023-03-01T09:53:07;32.80;;;23.57;;
8285;SDS011;4181;43.416;24.598;2023-03-01T09:55:39;34.13;;;24.23;;
8285;SDS011;4181;43.416;24.598;2023-03-01T10:06:38;31.20;;;21.90;;
8285;SDS011;4181;43.416;24.598;2023-03-01T10:09:13;27.77;;;17.70;;
8285;SDS011;4181;43.416;24.598;2023-03-01T10:11:43;33.03;;;21.27;;
8285;SDS011;4181;43.416;24.598;2023-03-01T10:14:32;38.33;;;25.83;;
8285;SDS011;4181;43.416;24.598;2023-03-01T10:17:10;25.43;;;20.10;;
8285;SDS011;4181;43.416;24.598;2023-03-01T10:19:43;27.53;;;19.87;;
8285;SDS011;4181;43.416;24.598;2023-03-01T10:24:48;26.10;;;20.00;;
8285;SDS011;4181;43.416;24.598;2023-03-01T10:27:37;37.03;;;25.07;;
8285;SDS011;4181;43.416;24.598;2023-03-01T10:32:31;42.47;;;25.90;;
8285;SDS011;4181;43.416;24.598;2023-03-01T10:34:57;41.07;;;25.57;;
8285;SDS011;4181;43.416;24.598;2023-03-01T10:37:23;29.47;;;20.90;;
8285;SDS011;4181;43.416;24.598;2023-03-01T10:40:09;34.03;;;23.43;;
8285;SDS011;4181;43.416;24.598;2023-03-01T10:42:36;31.23;;;21.77;;
8285;SDS011;4181;43.416;24.598;2023-03-01T10:45:23;26.20;;;20.67;;
8285;SDS011;4181;43.416;24.598;2023-03-01T10:50:30;31.80;;;23.93;;
8285;SDS011;4181;43.416;24.598;2023-03-01T10:53:00;29.57;;;19.40;;
8285;SDS011;4181;43.416;24.598;2023-03-01T10:55:30;25.37;;;19.80;;
8285;SDS011;4181;43.416;24.598;2023-03-01T10:58:19;29.23;;;19.43;;
8285;SDS011;4181;43.416;24.598;2023-03-01T11:03:16;26.63;;;18.53;;
8285;SDS011;4181;43.416;24.598;2023-03-01T11:13:51;32.43;;;22.43;;
8285;SDS011;4181;43.416;24.598;2023-03-01T11:16:26;32.97;;;21.93;;
8285;SDS011;4181;43.416;24.598;2023-03-01T11:19:12;30.67;;;21.97;;
8285;SDS011;4181;43.416;24.598;2023-03-01T11:22:02;39.77;;;23.67;;
8285;SDS011;4181;43.416;24.598;2023-03-01T11:24:33;29.77;;;19.37;;
8285;SDS011;4181;43.416;24.598;2023-03-01T11:27:10;26.90;;;19.27;;
8285;SDS011;4181;43.416;24.598;2023-03-01T11:32:50;28.57;;;19.20;;
8285;SDS011;4181;43.416;24.598;2023-03-01T11:35:25;29.03;;;19.60;;
8285;SDS011;4181;43.416;24.598;2023-03-01T11:38:03;36.43;;;22.67;;
8285;SDS011;4181;43.416;24.598;2023-03-01T11:40:41;38.33;;;25.10;;
8285;SDS011;4181;43.416;24.598;2023-03-01T11:57:10;31.97;;;20.40;;
8285;SDS011;4181;43.416;24.598;2023-03-01T12:05:50;31.80;;;21.60;;
8285;SDS011;4181;43.416;24.598;2023-03-01T12:19:15;26.60;;;19.40;;
8285;SDS011;4181;43.416;24.598;2023-03-01T12:22:32;25.77;;;18.47;;
8285;SDS011;4181;43.416;24.598;2023-03-01T12:25:16;30.80;;;20.53;;
8285;SDS011;4181;43.416;24.598;2023-03-01T12:33:10;26.97;;;18.40;;
8285;SDS011;4181;43.416;24.598;2023-03-01T12:42:01;34.87;;;21.13;;
8285;SDS011;4181;43.416;24.598;2023-03-01T12:52:41;26.87;;;18.13;;
8285;SDS011;4181;43.416;24.598;2023-03-01T13:00:59;24.60;;;17.60;;
8285;SDS011;4181;43.416;24.598;2023-03-01T13:03:38;26.57;;;19.70;;
8285;SDS011;4181;43.416;24.598;2023-03-01T13:06:23;29.23;;;21.57;;
8285;SDS011;4181;43.416;24.598;2023-03-01T13:09:02;32.77;;;22.50;;
8285;SDS011;4181;43.416;24.598;2023-03-01T13:11:40;28.57;;;19.63;;
8285;SDS011;4181;43.416;24.598;2023-03-01T13:16:48;39.93;;;26.13;;
8285;SDS011;4181;43.416;24.598;2023-03-01T13:19:22;28.23;;;21.00;;
8285;SDS011;4181;43.416;24.598;2023-03-01T13:21:54;37.00;;;24.37;;
8285;SDS011;4181;43.416;24.598;2023-03-01T13:24:27;25.87;;;19.60;;
8285;SDS011;4181;43.416;24.598;2023-03-01T13:37:45;31.57;;;22.57;;
8285;SDS011;4181;43.416;24.598;2023-03-01T13:42:46;33.83;;;24.90;;
8285;SDS011;4181;43.416;24.598;2023-03-01T13:45:15;30.40;;;21.40;;
8285;SDS011;4181;43.416;24.598;2023-03-01T13:47:41;28.43;;;20.40;;
8285;SDS011;4181;43.416;24.598;2023-03-01T13:50:15;28.60;;;21.17;;
8285;SDS011;4181;43.416;24.598;2023-03-01T13:53:23;32.83;;;24.13;;
8285;SDS011;4181;43.416;24.598;2023-03-01T13:55:50;27.53;;;20.30;;
8285;SDS011;4181;43.416;24.598;2023-03-01T14:01:06;21.60;;;17.30;;
8285;SDS011;4181;43.416;24.598;2023-03-01T14:03:45;25.43;;;18.33;;
8285;SDS011;4181;43.416;24.598;2023-03-01T14:06:14;23.77;;;19.37;;
8285;SDS011;4181;43.416;24.598;2023-03-01T14:08:45;27.43;;;18.37;;
8285;SDS011;4181;43.416;24.598;2023-03-01T14:12:14;37.43;;;27.17;;
8285;SDS011;4181;43.416;24.598;2023-03-01T14:20:21;42.70;;;24.83;;
8285;SDS011;4181;43.416;24.598;2023-03-01T14:22:49;40.83;;;28.60;;
8285;SDS011;4181;43.416;24.598;2023-03-01T14:28:04;30.70;;;22.33;;
8285;SDS011;4181;43.416;24.598;2023-03-01T14:30:38;28.23;;;20.33;;
8285;SDS011;4181;43.416;24.598;2023-03-01T14:33:17;34.70;;;24.80;;
8285;SDS011;4181;43.416;24.598;2023-03-01T14:36:08;49.27;;;33.37;;
8285;SDS011;4181;43.416;24.598;2023-03-01T14:38:37;49.93;;;36.80;;
8285;SDS011;4181;43.416;24.598;2023-03-01T14:41:07;42.67;;;32.13;;
8285;SDS011;4181;43.416;24.598;2023-03-01T14:43:41;35.80;;;22.47;;
8285;SDS011;4181;43.416;24.598;2023-03-01T14:49:06;82.53;;;51.53;;
8285;SDS011;4181;43.416;24.598;2023-03-01T14:51:37;51.67;;;33.83;;
8285;SDS011;4181;43.416;24.598;2023-03-01T14:57:05;53.43;;;31.83;;
8285;SDS011;4181;43.416;24.598;2023-03-01T14:59:32;56.97;;;35.07;;
8285;SDS011;4181;43.416;24.598;2023-03-01T15:01:59;78.07;;;51.33;;
8285;SDS011;4181;43.416;24.598;2023-03-01T15:04:25;62.90;;;39.53;;
8285;SDS011;4181;43.416;24.598;2023-03-01T15:06:53;82.40;;;48.63;;
8285;SDS011;4181;43.416;24.598;2023-03-01T15:09:20;53.60;;;36.37;;
8285;SDS011;4181;43.416;24.598;2023-03-01T15:11:47;41.00;;;26.00;;
8285;SDS011;4181;43.416;24.598;2023-03-01T15:14:27;38.03;;;25.00;;
8285;SDS011;4181;43.416;24.598;2023-03-01T15:20:13;50.40;;;40.13;;
8285;SDS011;4181;43.416;24.598;2023-03-01T15:22:45;39.93;;;30.37;;
8285;SDS011;4181;43.416;24.598;2023-03-01T15:25:14;40.87;;;32.30;;
8285;SDS011;4181;43.416;24.598;2023-03-01T15:27:46;36.07;;;27.13;;
8285;SDS011;4181;43.416;24.598;2023-03-01T15:30:16;28.03;;;22.40;;
8285;SDS011;4181;43.416;24.598;2023-03-01T15:32:43;43.67;;;33.87;;
8285;SDS011;4181;43.416;24.598;2023-03-01T15:40:54;60.27;;;36.67;;
8285;SDS011;4181;43.416;24.598;2023-03-01T15:46:17;59.50;;;35.43;;
8285;SDS011;4181;43.416;24.598;2023-03-01T15:48:47;34.40;;;24.50;;
8285;SDS011;4181;43.416;24.598;2023-03-01T15:51:17;48.53;;;33.10;;
8285;SDS011;4181;43.416;24.598;2023-03-01T15:53:50;46.33;;;31.57;;
8285;SDS011;4181;43.416;24.598;2023-03-01T15:56:17;30.47;;;21.27;;
8285;SDS011;4181;43.416;24.598;2023-03-01T15:58:43;30.57;;;20.73;;
8285;SDS011;4181;43.416;24.598;2023-03-01T16:01:10;31.47;;;21.97;;
8285;SDS011;4181;43.416;24.598;2023-03-01T16:03:38;33.53;;;23.93;;
8285;SDS011;4181;43.416;24.598;2023-03-01T16:06:03;29.83;;;21.23;;
8285;SDS011;4181;43.416;24.598;2023-03-01T16:08:29;33.63;;;23.97;;
8285;SDS011;4181;43.416;24.598;2023-03-01T16:10:55;39.73;;;28.90;;
8285;SDS011;4181;43.416;24.598;2023-03-01T16:13:20;41.37;;;30.10;;
8285;SDS011;4181;43.416;24.598;2023-03-01T16:15:46;38.73;;;29.53;;
8285;SDS011;4181;43.416;24.598;2023-03-01T16:18:20;38.07;;;24.73;;
8285;SDS011;4181;43.416;24.598;2023-03-01T16:20:46;40.13;;;30.10;;
8285;SDS011;4181;43.416;24.598;2023-03-01T16:23:11;28.53;;;22.07;;
8285;SDS011;4181;43.416;24.598;2023-03-01T16:25:37;54.57;;;25.80;;
8285;SDS011;4181;43.416;24.598;2023-03-01T16:28:03;57.80;;;32.20;;
8285;SDS011;4181;43.416;24.598;2023-03-01T16:30:33;48.50;;;29.87;;
8285;SDS011;4181;43.416;24.598;2023-03-01T16:33:00;52.17;;;29.83;;
8285;SDS011;4181;43.416;24.598;2023-03-01T16:35:26;32.57;;;22.03;;
8285;SDS011;4181;43.416;24.598;2023-03-01T16:37:51;45.27;;;29.13;;
8285;SDS011;4181;43.416;24.598;2023-03-01T16:40:20;90.43;;;39.43;;
8285;SDS011;4181;43.416;24.598;2023-03-01T16:42:52;54.93;;;30.97;;
8285;SDS011;4181;43.416;24.598;2023-03-01T16:45:19;47.70;;;30.70;;
8285;SDS011;4181;43.416;24.598;2023-03-01T16:47:44;39.20;;;25.77;;
8285;SDS011;4181;43.416;24.598;2023-03-01T16:50:10;59.23;;;33.93;;
8285;SDS011;4181;43.416;24.598;2023-03-01T16:52:36;46.13;;;29.13;;
8285;SDS011;4181;43.416;24.598;2023-03-01T16:55:03;76.90;;;46.27;;
8285;SDS011;4181;43.416;24.598;2023-03-01T16:57:30;85.20;;;43.23;;
8285;SDS011;4181;43.416;24.598;2023-03-01T16:59:56;244.90;;;111.47;;
8285;SDS011;4181;43.416;24.598;2023-03-01T17:02:22;70.77;;;39.57;;
8285;SDS011;4181;43.416;24.598;2023-03-01T17:04:54;73.63;;;37.60;;
8285;SDS011;4181;43.416;24.598;2023-03-01T17:07:21;47.47;;;28.97;;
8285;SDS011;4181;43.416;24.598;2023-03-01T17:09:47;46.60;;;28.03;;
8285;SDS011;4181;43.416;24.598;2023-03-01T17:12:15;53.33;;;32.03;;
8285;SDS011;4181;43.416;24.598;2023-03-01T17:14:41;37.93;;;24.17;;
8285;SDS011;4181;43.416;24.598;2023-03-01T17:17:08;69.80;;;37.40;;
8285;SDS011;4181;43.416;24.598;2023-03-01T17:19:34;67.03;;;40.17;;
8285;SDS011;4181;43.416;24.598;2023-03-01T17:22:05;50.37;;;28.33;;
8285;SDS011;4181;43.416;24.598;2023-03-01T17:24:32;45.30;;;26.83;;
8285;SDS011;4181;43.416;24.598;2023-03-01T17:26:59;42.47;;;27.43;;
8285;SDS011;4181;43.416;24.598;2023-03-01T17:29:24;35.13;;;21.20;;
8285;SDS011;4181;43.416;24.598;2023-03-01T17:31:50;36.83;;;22.77;;